Time;durP1;ratioP1;P1;durP2;ratioP2;P2;SDS_P1;SDS_P2;PMS_P1;PMS_P2;Temp;Humidity;BMP_temperature;BMP_pressure;BME280_temperature;BME280_humidity;BME280_pressure;Samples;Min_cycle;Max_cycle;Signal;HPM_P1;HPM_P2
2023/05/31 00:00:49;;;;;;;13.38;5.97;;;;;;;;;;5060629;28;20489;-89
2023/05/31 00:03:15;;;;;;;11.35;5.90;;;;;;;;;;5038314;28;20520;-89
2023/05/31 00:05:41;;;;;;;9.57;5.47;;;;;;;;;;5068660;28;20041;-89
2023/05/31 00:08:07;;;;;;;11.90;6.25;;;;;;;;;;5070867;28;20041;-89
2023/05/31 00:10:33;;;;;;;10.02;5.05;;;;;;;;;;5071810;28;20048;-89
2023/05/31 00:12:59;;;;;;;12.10;5.90;;;;;;;;;;5066237;28;20071;-89
2023/05/31 00:15:25;;;;;;;13.70;5.70;;;;;;;;;;5066392;28;20049;-89
2023/05/31 00:17:52;;;;;;;11.13;5.63;;;;;;;;;;5051451;28;20040;-89
2023/05/31 00:20:18;;;;;;;11.27;5.45;;;;;;;;;;5051801;28;20123;-89
2023/05/31 00:22:44;;;;;;;8.95;5.28;;;;;;;;;;5064226;28;20202;-88
2023/05/31 00:25:10;;;;;;;10.55;4.68;;;;;;;;;;5065901;28;20051;-89
2023/05/31 00:27:36;;;;;;;12.65;5.78;;;;;;;;;;5075745;28;20490;-89
2023/05/31 00:30:02;;;;;;;9.98;5.88;;;;;;;;;;5071970;28;20389;-89
2023/05/31 00:32:29;;;;;;;9.07;5.00;;;;;;;;;;5066498;28;20483;-89
2023/05/31 00:34:55;;;;;;;10.60;5.80;;;;;;;;;;5073186;28;20520;-89
2023/05/31 00:37:21;;;;;;;12.77;5.97;;;;;;;;;;5059724;28;20048;-89
2023/05/31 00:39:47;;;;;;;13.35;6.03;;;;;;;;;;5059648;28;20051;-89
2023/05/31 00:42:13;;;;;;;11.43;5.28;;;;;;;;;;5069419;28;20056;-89
2023/05/31 00:44:39;;;;;;;12.60;5.75;;;;;;;;;;5064336;28;20079;-89
2023/05/31 00:47:05;;;;;;;12.20;6.65;;;;;;;;;;5058914;28;20377;-89
2023/05/31 00:49:31;;;;;;;12.68;6.15;;;;;;;;;;5058522;28;20051;-89
2023/05/31 00:51:58;;;;;;;12.07;5.70;;;;;;;;;;5050282;28;20073;-89
2023/05/31 00:54:24;;;;;;;11.27;6.28;;;;;;;;;;5022609;28;20045;-89
2023/05/31 00:56:51;;;;;;;11.43;5.93;;;;;;;;;;5054373;28;20370;-89
2023/05/31 00:59:17;;;;;;;8.25;5.35;;;;;;;;;;5053432;28;20041;-89
2023/05/31 01:01:43;;;;;;;11.18;5.43;;;;;;;;;;5054361;28;20037;-89
2023/05/31 01:04:09;;;;;;;12.32;5.80;;;;;;;;;;5037026;28;20037;-89
2023/05/31 01:06:35;;;;;;;8.95;5.05;;;;;;;;;;5053545;28;20049;-88
2023/05/31 01:09:06;;;;;;;10.00;4.38;;;;;;;;;;5037545;28;20036;-89
2023/05/31 01:11:32;;;;;;;9.63;4.80;;;;;;;;;;5036864;28;20037;-88
2023/05/31 01:14:01;;;;;;;13.18;5.43;;;;;;;;;;5037590;28;20033;-89
2023/05/31 01:16:31;;;;;;;10.32;5.65;;;;;;;;;;5053041;28;20047;-89
2023/05/31 01:19:02;;;;;;;12.90;6.15;;;;;;;;;;5039400;28;20058;-89
2023/05/31 01:21:34;;;;;;;9.65;5.20;;;;;;;;;;5054924;28;20049;-89
2023/05/31 01:24:22;;;;;;;8.85;4.70;;;;;;;;;;5053906;28;20541;-83
2023/05/31 01:26:50;;;;;;;10.73;5.03;;;;;;;;;;5053581;28;20051;-89
2023/05/31 01:29:20;;;;;;;11.80;5.80;;;;;;;;;;5053634;28;20051;-89
2023/05/31 01:31:47;;;;;;;14.60;6.25;;;;;;;;;;5037002;28;20052;-83
2023/05/31 01:34:13;;;;;;;13.13;6.30;;;;;;;;;;5053384;28;20549;-83
2023/05/31 01:36:40;;;;;;;10.65;6.03;;;;;;;;;;5057307;28;20025;-83
2023/05/31 01:39:06;;;;;;;13.52;6.47;;;;;;;;;;5043166;28;20043;-83
2023/05/31 01:41:38;;;;;;;13.93;6.70;;;;;;;;;;5058825;28;20128;-83
2023/05/31 01:44:05;;;;;;;10.75;5.88;;;;;;;;;;5043288;28;20044;-88
2023/05/31 01:46:31;;;;;;;13.02;6.30;;;;;;;;;;5038298;28;20045;-88
2023/05/31 01:48:57;;;;;;;15.63;6.22;;;;;;;;;;5056806;28;20486;-89
2023/05/31 01:51:24;;;;;;;13.45;6.75;;;;;;;;;;5055905;28;20382;-89
2023/05/31 01:53:50;;;;;;;9.43;5.00;;;;;;;;;;5037640;28;20498;-89
2023/05/31 01:56:16;;;;;;;9.20;4.82;;;;;;;;;;5053628;28;20075;-89
2023/05/31 01:58:48;;;;;;;10.63;4.88;;;;;;;;;;5055112;28;20094;-88
2023/05/31 02:01:16;;;;;;;13.07;5.30;;;;;;;;;;5047668;28;20041;-88
2023/05/31 02:03:42;;;;;;;10.70;4.97;;;;;;;;;;5052109;28;20417;-89
2023/05/31 02:06:12;;;;;;;9.13;4.93;;;;;;;;;;5049296;28;20033;-88
2023/05/31 02:08:38;;;;;;;10.90;6.20;;;;;;;;;;5046034;28;20033;-89
2023/05/31 02:11:04;;;;;;;10.75;6.05;;;;;;;;;;5052538;28;20044;-89
2023/05/31 02:13:31;;;;;;;9.05;4.90;;;;;;;;;;5052248;28;20036;-89
2023/05/31 02:15:57;;;;;;;10.40;5.05;;;;;;;;;;5035609;28;20049;-89
2023/05/31 02:18:27;;;;;;;11.98;6.07;;;;;;;;;;5035541;28;20041;-89
2023/05/31 02:20:54;;;;;;;11.70;4.93;;;;;;;;;;5038710;28;20119;-89
2023/05/31 02:23:20;;;;;;;11.13;5.95;;;;;;;;;;5051998;28;20059;-89
2023/05/31 02:25:46;;;;;;;10.15;5.18;;;;;;;;;;5035831;28;20067;-88
2023/05/31 02:28:13;;;;;;;12.98;5.32;;;;;;;;;;5052050;28;20573;-89
2023/05/31 02:30:40;;;;;;;12.00;5.07;;;;;;;;;;5052032;28;20041;-89
2023/05/31 02:33:07;;;;;;;9.82;5.20;;;;;;;;;;5051970;28;20064;-89
2023/05/31 02:35:33;;;;;;;7.97;4.72;;;;;;;;;;5051819;28;20520;-89
2023/05/31 02:37:59;;;;;;;10.52;5.70;;;;;;;;;;5085694;28;20033;-89
2023/05/31 02:40:26;;;;;;;11.65;5.20;;;;;;;;;;5037403;28;20124;-89
2023/05/31 02:42:52;;;;;;;8.00;4.38;;;;;;;;;;5060327;28;20392;-89
2023/05/31 02:45:18;;;;;;;10.35;5.00;;;;;;;;;;5052973;28;20039;-89
2023/05/31 02:47:44;;;;;;;16.40;5.95;;;;;;;;;;5052373;28;20115;-83
2023/05/31 02:50:11;;;;;;;12.75;6.25;;;;;;;;;;5052906;28;20041;-83
2023/05/31 02:52:37;;;;;;;11.27;6.10;;;;;;;;;;5052448;28;20037;-83
2023/05/31 02:55:04;;;;;;;14.82;7.20;;;;;;;;;;5069669;28;20064;-83
2023/05/31 02:57:30;;;;;;;9.20;5.07;;;;;;;;;;5064041;28;20044;-82
2023/05/31 02:59:58;;;;;;;12.40;6.78;;;;;;;;;;5041291;28;20029;-82
2023/05/31 03:02:24;;;;;;;13.98;6.35;;;;;;;;;;5062529;28;20051;-82
2023/05/31 03:04:51;;;;;;;15.10;6.78;;;;;;;;;;5065605;28;20131;-83
2023/05/31 03:07:17;;;;;;;17.10;6.85;;;;;;;;;;5049460;28;20045;-84
2023/05/31 03:09:43;;;;;;;10.48;6.10;;;;;;;;;;5051602;28;20055;-83
2023/05/31 03:12:10;;;;;;;11.20;5.32;;;;;;;;;;5052384;28;20045;-83
2023/05/31 03:14:36;;;;;;;11.77;5.15;;;;;;;;;;5052745;28;20040;-83
2023/05/31 03:17:03;;;;;;;10.35;4.82;;;;;;;;;;5052370;28;20037;-83
2023/05/31 03:19:29;;;;;;;10.75;5.60;;;;;;;;;;5051506;28;20099;-89
2023/05/31 03:21:55;;;;;;;12.82;5.85;;;;;;;;;;5051614;28;20497;-89
2023/05/31 03:24:21;;;;;;;11.25;5.38;;;;;;;;;;5052592;28;20049;-89
2023/05/31 03:26:48;;;;;;;10.65;5.80;;;;;;;;;;5051177;28;20041;-88
2023/05/31 03:29:14;;;;;;;12.52;5.97;;;;;;;;;;5051494;28;20075;-89
2023/05/31 03:31:40;;;;;;;10.38;5.85;;;;;;;;;;5050488;28;20041;-89
2023/05/31 03:34:06;;;;;;;12.18;5.53;;;;;;;;;;5059887;28;20044;-89
2023/05/31 03:36:32;;;;;;;11.85;6.35;;;;;;;;;;5054857;28;20033;-89
2023/05/31 03:38:58;;;;;;;11.75;5.70;;;;;;;;;;5051957;28;20029;-83
2023/05/31 03:41:25;;;;;;;13.00;5.63;;;;;;;;;;5054280;28;20048;-89
2023/05/31 03:43:52;;;;;;;13.65;6.47;;;;;;;;;;5025409;28;20075;-89
2023/05/31 03:46:18;;;;;;;10.65;5.18;;;;;;;;;;5059163;28;20051;-89
2023/05/31 03:48:44;;;;;;;9.32;5.70;;;;;;;;;;5034625;28;20036;-89
2023/05/31 03:51:10;;;;;;;10.13;5.70;;;;;;;;;;5051307;28;20045;-90
2023/05/31 03:53:36;;;;;;;9.52;5.53;;;;;;;;;;5050797;28;20037;-89
2023/05/31 03:56:02;;;;;;;13.07;6.07;;;;;;;;;;5065796;28;20068;-88
2023/05/31 03:58:28;;;;;;;11.55;5.78;;;;;;;;;;5051540;28;20051;-83
2023/05/31 04:00:55;;;;;;;14.57;6.28;;;;;;;;;;5032805;28;20397;-83
2023/05/31 04:03:21;;;;;;;14.05;7.13;;;;;;;;;;5049109;28;20040;-89
2023/05/31 04:05:47;;;;;;;10.75;6.03;;;;;;;;;;5060671;28;20044;-89
2023/05/31 04:08:13;;;;;;;11.85;6.38;;;;;;;;;;5051138;28;20140;-89
2023/05/31 04:10:40;;;;;;;11.10;5.60;;;;;;;;;;5034034;28;20040;-89
2023/05/31 04:13:06;;;;;;;9.80;5.10;;;;;;;;;;5052844;28;20037;-89
2023/05/31 04:15:32;;;;;;;10.38;5.50;;;;;;;;;;5046216;28;20045;-89
2023/05/31 04:17:58;;;;;;;11.77;5.63;;;;;;;;;;5047629;28;20037;-89
2023/05/31 04:20:24;;;;;;;11.07;5.55;;;;;;;;;;5050991;28;20037;-89
2023/05/31 04:22:52;;;;;;;12.10;5.50;;;;;;;;;;5050114;28;20171;-89
2023/05/31 04:25:18;;;;;;;11.50;6.78;;;;;;;;;;5050917;28;20162;-89
2023/05/31 04:27:44;;;;;;;9.95;5.30;;;;;;;;;;5060962;28;20505;-89
2023/05/31 04:30:10;;;;;;;10.55;6.03;;;;;;;;;;5034443;28;20045;-89
2023/05/31 04:32:37;;;;;;;11.43;6.25;;;;;;;;;;5036186;28;20401;-89
2023/05/31 04:35:04;;;;;;;10.77;6.45;;;;;;;;;;5049422;28;20068;-88
2023/05/31 04:37:30;;;;;;;11.27;6.35;;;;;;;;;;5039919;28;20080;-89
2023/05/31 04:39:57;;;;;;;11.27;5.20;;;;;;;;;;5052365;28;20116;-90
2023/05/31 04:42:26;;;;;;;13.07;6.15;;;;;;;;;;5052931;28;20041;-90
2023/05/31 04:44:57;;;;;;;9.63;5.60;;;;;;;;;;5051778;28;20041;-89
2023/05/31 04:47:28;;;;;;;12.65;6.30;;;;;;;;;;5055730;28;20044;-89
2023/05/31 04:49:57;;;;;;;12.43;6.53;;;;;;;;;;5053815;28;20044;-84
2023/05/31 04:52:28;;;;;;;11.43;5.50;;;;;;;;;;5083756;28;20040;-83
2023/05/31 04:54:55;;;;;;;12.18;6.00;;;;;;;;;;5037931;28;20069;-83
2023/05/31 04:57:21;;;;;;;9.63;4.85;;;;;;;;;;5037741;28;20478;-84
2023/05/31 04:59:47;;;;;;;10.18;5.60;;;;;;;;;;5054065;28;20478;-83
2023/05/31 05:02:13;;;;;;;10.38;5.88;;;;;;;;;;5052041;28;20466;-84
2023/05/31 05:04:39;;;;;;;9.43;5.75;;;;;;;;;;5054436;28;20047;-83
2023/05/31 05:07:06;;;;;;;10.07;5.18;;;;;;;;;;5038105;28;20134;-85
2023/05/31 05:09:33;;;;;;;10.43;5.43;;;;;;;;;;5055462;28;20049;-84
2023/05/31 05:11:59;;;;;;;16.15;6.18;;;;;;;;;;5056843;28;20137;-84
2023/05/31 05:14:25;;;;;;;9.93;5.63;;;;;;;;;;5055261;28;20044;-84
2023/05/31 05:16:51;;;;;;;12.15;5.88;;;;;;;;;;5022517;28;20040;-84
2023/05/31 05:19:17;;;;;;;10.55;5.68;;;;;;;;;;5060138;28;20612;-84
2023/05/31 05:21:43;;;;;;;13.00;5.15;;;;;;;;;;5056436;28;20393;-83
2023/05/31 05:24:09;;;;;;;11.07;5.63;;;;;;;;;;5055484;28;20049;-83
2023/05/31 05:26:35;;;;;;;11.30;6.13;;;;;;;;;;5059501;28;20059;-84
2023/05/31 05:29:01;;;;;;;12.65;6.28;;;;;;;;;;5058006;28;20036;-84
2023/05/31 05:31:27;;;;;;;11.15;6.10;;;;;;;;;;5059552;28;20511;-83
2023/05/31 05:33:54;;;;;;;13.45;6.65;;;;;;;;;;5072095;28;20036;-83
2023/05/31 05:36:20;;;;;;;13.65;6.18;;;;;;;;;;5055530;28;20048;-83
2023/05/31 05:38:46;;;;;;;14.63;6.35;;;;;;;;;;5058391;28;20044;-89
2023/05/31 05:41:12;;;;;;;12.20;5.93;;;;;;;;;;5027155;28;20112;-89
2023/05/31 05:43:42;;;;;;;13.68;6.00;;;;;;;;;;5053891;28;20459;-89
2023/05/31 05:46:08;;;;;;;12.70;5.97;;;;;;;;;;5053782;28;20490;-89
2023/05/31 05:48:34;;;;;;;11.73;6.13;;;;;;;;;;5036611;28;20068;-89
2023/05/31 05:51:00;;;;;;;10.40;6.38;;;;;;;;;;5063073;28;20504;-90
2023/05/31 05:53:27;;;;;;;11.40;5.97;;;;;;;;;;5053467;28;20056;-90
2023/05/31 05:55:53;;;;;;;10.75;5.50;;;;;;;;;;5053096;28;20044;-90
2023/05/31 05:58:20;;;;;;;10.52;5.35;;;;;;;;;;5053239;28;20498;-88
2023/05/31 06:00:47;;;;;;;13.25;5.80;;;;;;;;;;5045786;28;20070;-89
2023/05/31 06:03:14;;;;;;;9.30;5.57;;;;;;;;;;5053643;28;20044;-90
2023/05/31 06:05:44;;;;;;;13.32;5.35;;;;;;;;;;5053402;28;20045;-90
2023/05/31 06:08:13;;;;;;;8.77;5.00;;;;;;;;;;5040898;28;20413;-90
2023/05/31 06:10:40;;;;;;;8.40;5.07;;;;;;;;;;5042858;28;20123;-90
2023/05/31 06:13:07;;;;;;;12.13;5.10;;;;;;;;;;5053719;28;20053;-90
2023/05/31 06:15:33;;;;;;;9.10;5.00;;;;;;;;;;5052834;28;20037;-90
2023/05/31 06:17:59;;;;;;;8.60;4.95;;;;;;;;;;5052763;28;20044;-88
2023/05/31 06:20:26;;;;;;;10.23;5.53;;;;;;;;;;5051789;28;20041;-83
2023/05/31 06:22:53;;;;;;;12.95;5.25;;;;;;;;;;5067232;28;20052;-83
2023/05/31 06:25:20;;;;;;;14.00;5.25;;;;;;;;;;5064920;28;20179;-90
2023/05/31 06:27:46;;;;;;;23.58;5.82;;;;;;;;;;5052171;28;20057;-90
2023/05/31 06:30:16;;;;;;;8.48;5.07;;;;;;;;;;5052224;28;20043;-89
2023/05/31 06:32:42;;;;;;;9.93;5.68;;;;;;;;;;5054250;28;20067;-88
2023/05/31 06:35:09;;;;;;;7.95;5.07;;;;;;;;;;5049452;28;20052;-89
2023/05/31 06:37:35;;;;;;;26.45;5.68;;;;;;;;;;5041883;28;20060;-89
2023/05/31 06:40:02;;;;;;;10.95;5.18;;;;;;;;;;5032443;28;20041;-90
2023/05/31 06:42:28;;;;;;;8.52;4.32;;;;;;;;;;5036112;28;20494;-91
2023/05/31 06:44:54;;;;;;;9.20;4.80;;;;;;;;;;5052318;28;20095;-84
2023/05/31 06:47:20;;;;;;;8.75;4.97;;;;;;;;;;5035340;28;20068;-83
2023/05/31 06:49:46;;;;;;;9.52;4.93;;;;;;;;;;5052724;28;20437;-83
2023/05/31 06:52:13;;;;;;;10.10;5.00;;;;;;;;;;5036458;28;20102;-82
2023/05/31 06:54:39;;;;;;;9.02;4.80;;;;;;;;;;5035479;28;20040;-83
2023/05/31 06:57:05;;;;;;;9.65;4.25;;;;;;;;;;5052245;28;20571;-83
2023/05/31 06:59:32;;;;;;;11.60;5.00;;;;;;;;;;5051996;28;20077;-82
2023/05/31 07:01:58;;;;;;;8.02;4.60;;;;;;;;;;5040430;28;20053;-83
2023/05/31 07:04:24;;;;;;;9.55;4.70;;;;;;;;;;5050475;28;20033;-84
2023/05/31 07:06:50;;;;;;;9.05;4.72;;;;;;;;;;5052122;28;20041;-87
2023/05/31 07:09:17;;;;;;;9.18;4.72;;;;;;;;;;5051288;28;20045;-83
2023/05/31 07:11:43;;;;;;;11.20;4.95;;;;;;;;;;5051744;28;20048;-82
2023/05/31 07:14:09;;;;;;;9.55;4.43;;;;;;;;;;5059536;28;20491;-83
2023/05/31 07:16:36;;;;;;;8.57;4.10;;;;;;;;;;5051522;28;20055;-83
2023/05/31 07:19:02;;;;;;;8.27;4.25;;;;;;;;;;5035359;28;20039;-83
2023/05/31 07:21:29;;;;;;;5.97;4.05;;;;;;;;;;5051302;28;20124;-83
2023/05/31 07:23:55;;;;;;;8.57;4.88;;;;;;;;;;5051806;28;20222;-83
2023/05/31 07:26:22;;;;;;;21.02;4.97;;;;;;;;;;5035039;28;20051;-83
2023/05/31 07:28:48;;;;;;;9.35;4.90;;;;;;;;;;5035619;28;20045;-83
2023/05/31 07:31:17;;;;;;;10.38;5.03;;;;;;;;;;5050475;28;20091;-82
2023/05/31 07:33:43;;;;;;;8.40;4.72;;;;;;;;;;5054061;28;20028;-83
2023/05/31 07:36:10;;;;;;;9.10;4.93;;;;;;;;;;5084513;28;20049;-82
2023/05/31 07:38:36;;;;;;;8.15;4.20;;;;;;;;;;5084893;28;20032;-83
2023/05/31 07:41:02;;;;;;;10.73;4.70;;;;;;;;;;5051343;28;20036;-83
2023/05/31 07:43:29;;;;;;;13.52;5.13;;;;;;;;;;5052021;28;20118;-83
2023/05/31 07:45:56;;;;;;;10.48;5.00;;;;;;;;;;5042067;28;20045;-83
2023/05/31 07:48:23;;;;;;;10.75;5.00;;;;;;;;;;5029796;28;20049;-83
2023/05/31 07:50:50;;;;;;;10.60;4.60;;;;;;;;;;5051396;28;20502;-83
2023/05/31 07:53:16;;;;;;;9.23;5.28;;;;;;;;;;5051126;28;20036;-83
2023/05/31 07:55:42;;;;;;;9.90;4.82;;;;;;;;;;5065288;28;20075;-82
2023/05/31 07:58:11;;;;;;;8.60;4.95;;;;;;;;;;5051456;28;20440;-84
2023/05/31 08:00:37;;;;;;;10.30;5.03;;;;;;;;;;5051280;28;20048;-83
2023/05/31 08:03:03;;;;;;;9.00;4.50;;;;;;;;;;5083883;28;20044;-83
2023/05/31 08:05:30;;;;;;;9.88;4.78;;;;;;;;;;5052190;28;20052;-83
2023/05/31 08:07:56;;;;;;;11.57;4.93;;;;;;;;;;5050976;28;20045;-83
2023/05/31 08:10:22;;;;;;;7.72;4.43;;;;;;;;;;5049167;28;20047;-83
2023/05/31 08:12:48;;;;;;;7.68;4.30;;;;;;;;;;5051016;28;20428;-82
2023/05/31 08:15:14;;;;;;;13.45;5.13;;;;;;;;;;5050793;28;20045;-83
2023/05/31 08:17:41;;;;;;;10.18;4.85;;;;;;;;;;5051152;28;20064;-82
2023/05/31 08:20:09;;;;;;;8.40;4.25;;;;;;;;;;5051253;28;20440;-83
2023/05/31 08:22:36;;;;;;;8.82;5.30;;;;;;;;;;5017964;28;20170;-82
2023/05/31 08:25:02;;;;;;;10.38;5.10;;;;;;;;;;5034364;28;20044;-89
2023/05/31 08:27:28;;;;;;;8.20;4.90;;;;;;;;;;5033619;28;20125;-89
2023/05/31 08:29:54;;;;;;;10.75;4.82;;;;;;;;;;5050497;28;20163;-89
2023/05/31 08:32:21;;;;;;;8.18;4.82;;;;;;;;;;5050166;28;20045;-89
2023/05/31 08:34:47;;;;;;;15.93;4.78;;;;;;;;;;5049648;28;20045;-89
2023/05/31 08:37:13;;;;;;;8.50;4.95;;;;;;;;;;5033837;28;20128;-88
2023/05/31 08:39:39;;;;;;;9.38;4.45;;;;;;;;;;5050785;28;20037;-90
2023/05/31 08:42:11;;;;;;;10.27;5.45;;;;;;;;;;5033766;28;20075;-88
2023/05/31 08:44:37;;;;;;;10.35;5.15;;;;;;;;;;5086657;28;20041;-89
2023/05/31 08:47:20;;;;;;;9.88;4.38;;;;;;;;;;5075664;28;20065;-89
2023/05/31 08:49:46;;;;;;;12.95;4.78;;;;;;;;;;5054250;28;20052;-88
2023/05/31 08:52:12;;;;;;;27.60;5.50;;;;;;;;;;5036736;28;20037;-90
2023/05/31 08:54:39;;;;;;;10.50;4.60;;;;;;;;;;5054174;28;20041;-88
2023/05/31 08:57:06;;;;;;;10.23;4.82;;;;;;;;;;5047869;28;20045;-88
2023/05/31 08:59:34;;;;;;;10.48;4.90;;;;;;;;;;5054042;28;20041;-88
2023/05/31 09:02:01;;;;;;;10.18;4.78;;;;;;;;;;5053847;28;20093;-89
2023/05/31 09:04:27;;;;;;;10.80;4.80;;;;;;;;;;5053128;28;20041;-89
2023/05/31 09:06:53;;;;;;;8.85;4.45;;;;;;;;;;5053601;28;20048;-89
2023/05/31 09:09:19;;;;;;;66.97;6.95;;;;;;;;;;5059397;28;20072;-88
2023/05/31 09:11:46;;;;;;;8.55;4.20;;;;;;;;;;5053554;28;20045;-88
2023/05/31 09:14:12;;;;;;;12.38;4.55;;;;;;;;;;5036959;28;20513;-89
2023/05/31 09:16:38;;;;;;;16.13;4.93;;;;;;;;;;5051404;28;20037;-88
2023/05/31 09:19:05;;;;;;;13.35;4.93;;;;;;;;;;5054540;28;20037;-88
2023/05/31 09:21:39;;;;;;;10.82;4.50;;;;;;;;;;5090155;28;20529;-88
2023/05/31 09:24:05;;;;;;;76.03;8.52;;;;;;;;;;5057790;28;20152;-81
2023/05/31 09:26:32;;;;;;;43.97;6.18;;;;;;;;;;5069708;28;20041;-82
2023/05/31 09:28:59;;;;;;;29.52;5.53;;;;;;;;;;5056596;28;20041;-81
2023/05/31 09:31:25;;;;;;;34.88;5.45;;;;;;;;;;5056342;28;20033;-81
2023/05/31 09:33:54;;;;;;;79.07;7.45;;;;;;;;;;5055937;28;20033;-81
2023/05/31 09:36:27;;;;;;;11.88;4.75;;;;;;;;;;5057175;28;20060;-81
2023/05/31 09:39:00;;;;;;;11.38;5.00;;;;;;;;;;5054221;28;20041;-81
2023/05/31 09:41:27;;;;;;;28.10;6.20;;;;;;;;;;5053618;28;20041;-81
2023/05/31 09:43:53;;;;;;;12.48;5.22;;;;;;;;;;5053581;28;20110;-81
2023/05/31 09:46:21;;;;;;;50.67;6.70;;;;;;;;;;5054103;28;20051;-88
2023/05/31 09:48:59;;;;;;;18.77;4.90;;;;;;;;;;5053054;28;20036;-89
2023/05/31 09:51:25;;;;;;;10.93;4.78;;;;;;;;;;5052700;28;20045;-88
2023/05/31 09:53:55;;;;;;;101.53;8.20;;;;;;;;;;5053827;28;20089;-81
2023/05/31 09:56:21;;;;;;;19.25;5.72;;;;;;;;;;5063877;28;20112;-81
2023/05/31 09:58:51;;;;;;;17.08;5.30;;;;;;;;;;5053365;28;20033;-81
2023/05/31 10:01:17;;;;;;;14.30;5.15;;;;;;;;;;5053075;28;20536;-81
2023/05/31 10:03:44;;;;;;;9.57;4.80;;;;;;;;;;5036577;28;20472;-82
2023/05/31 10:06:11;;;;;;;9.32;5.20;;;;;;;;;;5053083;28;20142;-88
2023/05/31 10:08:38;;;;;;;9.45;5.03;;;;;;;;;;5058915;28;20152;-89
2023/05/31 10:11:04;;;;;;;9.10;4.63;;;;;;;;;;5052494;28;20037;-89
2023/05/31 10:13:31;;;;;;;14.65;5.07;;;;;;;;;;5051916;28;20047;-88
2023/05/31 10:15:58;;;;;;;9.90;4.78;;;;;;;;;;5036092;28;20112;-89
2023/05/31 10:18:28;;;;;;;9.45;5.25;;;;;;;;;;5053042;28;20067;-89
2023/05/31 10:21:09;;;;;;;10.65;4.80;;;;;;;;;;5057121;28;20037;-88
2023/05/31 10:23:44;;;;;;;11.07;4.82;;;;;;;;;;5062983;28;20080;-88
2023/05/31 10:26:17;;;;;;;10.25;5.15;;;;;;;;;;5052425;28;20044;-87
2023/05/31 10:28:56;;;;;;;11.45;5.38;;;;;;;;;;5035364;28;20064;-88
2023/05/31 10:31:26;;;;;;;1514.85;74.85;;;;;;;;;;5035495;28;20437;-87
2023/05/31 10:34:00;;;;;;;140.60;10.40;;;;;;;;;;5051679;28;20041;-88
2023/05/31 10:36:28;;;;;;;13.18;5.05;;;;;;;;;;5054048;28;20084;-87
2023/05/31 10:39:00;;;;;;;7.68;4.85;;;;;;;;;;5053321;28;20044;-87
2023/05/31 10:41:29;;;;;;;13.13;5.00;;;;;;;;;;5035388;28;20033;-87
2023/05/31 10:43:58;;;;;;;10.30;4.95;;;;;;;;;;5052398;28;20040;-87
2023/05/31 10:46:27;;;;;;;10.77;5.25;;;;;;;;;;5051272;28;20075;-87
2023/05/31 10:48:56;;;;;;;10.57;4.57;;;;;;;;;;5051498;28;20409;-87
2023/05/31 10:51:40;;;;;;;7.70;4.70;;;;;;;;;;5031846;28;20037;-80
2023/05/31 10:54:06;;;;;;;9.48;4.22;;;;;;;;;;5076968;28;20045;-81
2023/05/31 10:56:32;;;;;;;9.82;4.30;;;;;;;;;;5046976;28;20045;-82
2023/05/31 10:58:59;;;;;;;10.10;4.72;;;;;;;;;;5051618;28;20136;-81
2023/05/31 11:01:28;;;;;;;12.38;4.18;;;;;;;;;;5042266;28;20040;-81
2023/05/31 11:03:58;;;;;;;13.52;3.92;;;;;;;;;;5057990;28;20425;-81
2023/05/31 11:06:32;;;;;;;9.27;4.15;;;;;;;;;;5045740;28;20131;-82
2023/05/31 11:08:59;;;;;;;11.57;4.53;;;;;;;;;;5049656;28;20158;-87
2023/05/31 11:11:44;;;;;;;10.77;4.00;;;;;;;;;;5049201;28;20037;-88
2023/05/31 11:14:26;;;;;;;10.05;3.70;;;;;;;;;;5029172;28;20141;-81
2023/05/31 11:16:53;;;;;;;8.00;4.30;;;;;;;;;;5067166;28;20166;-82
2023/05/31 11:19:21;;;;;;;13.05;4.63;;;;;;;;;;5051851;28;20049;-81
2023/05/31 11:21:47;;;;;;;7.32;4.22;;;;;;;;;;5051418;28;20053;-81
2023/05/31 11:24:28;;;;;;;9.55;4.47;;;;;;;;;;5052045;28;20094;-83
2023/05/31 11:26:55;;;;;;;11.55;4.45;;;;;;;;;;5051852;28;20063;-83
2023/05/31 11:29:21;;;;;;;11.93;4.07;;;;;;;;;;5035214;28;20083;-83
2023/05/31 11:31:58;;;;;;;11.65;4.55;;;;;;;;;;5050830;28;20751;-81
2023/05/31 11:34:25;;;;;;;10.13;4.65;;;;;;;;;;5051247;28;20048;-81
2023/05/31 11:36:51;;;;;;;7.47;4.05;;;;;;;;;;5051008;28;20174;-81
2023/05/31 11:39:18;;;;;;;12.82;4.65;;;;;;;;;;5051282;28;20139;-80
2023/05/31 11:41:44;;;;;;;13.57;4.15;;;;;;;;;;5053836;28;20041;-80
2023/05/31 11:44:27;;;;;;;23.77;5.43;;;;;;;;;;5044219;28;20477;-81
2023/05/31 11:46:56;;;;;;;11.50;4.30;;;;;;;;;;5033768;28;20087;-81
2023/05/31 11:49:22;;;;;;;9.32;4.97;;;;;;;;;;5058701;28;20460;-80
2023/05/31 11:51:49;;;;;;;8.70;4.95;;;;;;;;;;5051057;28;20452;-81
2023/05/31 11:54:16;;;;;;;14.68;4.60;;;;;;;;;;5034565;28;20247;-81
2023/05/31 11:56:42;;;;;;;10.98;4.75;;;;;;;;;;5035001;28;20072;-82
2023/05/31 11:59:10;;;;;;;11.20;5.25;;;;;;;;;;5054930;28;20041;-81
2023/05/31 12:01:36;;;;;;;7.78;4.45;;;;;;;;;;5054220;28;20072;-81
2023/05/31 12:04:02;;;;;;;8.85;4.10;;;;;;;;;;5050470;28;20167;-81
2023/05/31 12:06:29;;;;;;;14.63;4.60;;;;;;;;;;5051017;28;20037;-79
2023/05/31 12:08:55;;;;;;;12.02;4.90;;;;;;;;;;5035264;28;20278;-81
2023/05/31 12:11:21;;;;;;;11.43;4.57;;;;;;;;;;5058886;28;20040;-81
2023/05/31 12:13:48;;;;;;;9.23;4.32;;;;;;;;;;5054220;28;20041;-81
2023/05/31 12:16:14;;;;;;;10.60;4.70;;;;;;;;;;5050373;28;20044;-80
2023/05/31 12:18:40;;;;;;;9.80;4.75;;;;;;;;;;5035787;28;20044;-80
2023/05/31 12:21:15;;;;;;;10.23;4.47;;;;;;;;;;5055852;28;20041;-81
2023/05/31 12:23:55;;;;;;;13.50;4.60;;;;;;;;;;5054094;28;20045;-88
2023/05/31 12:26:22;;;;;;;11.45;4.47;;;;;;;;;;5055192;28;20048;-88
2023/05/31 12:28:49;;;;;;;11.15;5.03;;;;;;;;;;5054815;28;20393;-88
2023/05/31 12:31:22;;;;;;;9.30;4.90;;;;;;;;;;5037895;28;20456;-88
2023/05/31 12:33:59;;;;;;;9.35;4.30;;;;;;;;;;5054801;28;20051;-88
2023/05/31 12:36:26;;;;;;;7.57;4.85;;;;;;;;;;5054335;28;20057;-89
2023/05/31 12:38:59;;;;;;;9.50;4.90;;;;;;;;;;5037639;28;20095;-88
2023/05/31 12:41:26;;;;;;;8.10;4.93;;;;;;;;;;5054106;28;20055;-88
2023/05/31 12:43:54;;;;;;;11.80;5.32;;;;;;;;;;5053789;28;20040;-87
2023/05/31 12:46:20;;;;;;;9.77;5.32;;;;;;;;;;5054369;28;20040;-88
2023/05/31 12:48:47;;;;;;;12.65;5.05;;;;;;;;;;5058879;28;20370;-88
2023/05/31 12:51:13;;;;;;;11.85;5.00;;;;;;;;;;5062555;28;20037;-87
2023/05/31 12:53:40;;;;;;;10.02;5.03;;;;;;;;;;5037246;28;20124;-87
2023/05/31 12:56:06;;;;;;;8.63;5.13;;;;;;;;;;5054502;28;20049;-87
2023/05/31 12:58:32;;;;;;;10.02;5.72;;;;;;;;;;5054036;28;20037;-87
2023/05/31 13:00:58;;;;;;;8.75;5.18;;;;;;;;;;5053320;28;20095;-88
2023/05/31 13:03:24;;;;;;;8.85;5.03;;;;;;;;;;5054367;28;20131;-88
2023/05/31 13:05:50;;;;;;;10.90;5.00;;;;;;;;;;5053335;28;20045;-80
2023/05/31 13:08:16;;;;;;;10.40;5.65;;;;;;;;;;5055599;28;20037;-80
2023/05/31 13:10:43;;;;;;;12.05;5.47;;;;;;;;;;5037272;28;20525;-79
2023/05/31 13:13:09;;;;;;;10.80;5.13;;;;;;;;;;5020892;28;20404;-81
2023/05/31 13:15:35;;;;;;;11.35;5.80;;;;;;;;;;5053922;28;20053;-80
2023/05/31 13:18:01;;;;;;;10.43;4.82;;;;;;;;;;5053169;28;20124;-79
2023/05/31 13:20:27;;;;;;;8.82;4.85;;;;;;;;;;5053339;28;20037;-80
2023/05/31 13:22:53;;;;;;;12.20;4.90;;;;;;;;;;5053185;28;20041;-79
2023/05/31 13:25:20;;;;;;;12.40;5.00;;;;;;;;;;5055440;28;20063;-79
2023/05/31 13:27:46;;;;;;;8.95;4.88;;;;;;;;;;5053287;28;20498;-87
2023/05/31 13:30:12;;;;;;;9.93;4.82;;;;;;;;;;5052667;28;20063;-87
2023/05/31 13:32:38;;;;;;;10.18;5.03;;;;;;;;;;5053261;28;20099;-87
2023/05/31 13:35:06;;;;;;;10.63;4.43;;;;;;;;;;5053058;28;20544;-87
2023/05/31 13:37:32;;;;;;;8.77;4.30;;;;;;;;;;5061518;28;20509;-87
2023/05/31 13:39:58;;;;;;;10.25;4.53;;;;;;;;;;5058195;28;20166;-87
2023/05/31 13:42:24;;;;;;;10.13;5.32;;;;;;;;;;5051628;28;20041;-87
2023/05/31 13:44:50;;;;;;;10.50;4.43;;;;;;;;;;5054881;28;20119;-87
2023/05/31 13:47:17;;;;;;;12.10;4.95;;;;;;;;;;5052508;28;20076;-88
2023/05/31 13:49:43;;;;;;;9.70;4.93;;;;;;;;;;5041146;28;20044;-88
2023/05/31 13:52:13;;;;;;;8.10;4.93;;;;;;;;;;5052773;28;20080;-88
2023/05/31 13:54:39;;;;;;;19.30;5.55;;;;;;;;;;5057243;28;20485;-87
2023/05/31 13:57:05;;;;;;;12.05;4.35;;;;;;;;;;5046693;28;20045;-87
2023/05/31 13:59:31;;;;;;;9.48;4.50;;;;;;;;;;5056000;28;20060;-87
2023/05/31 14:01:57;;;;;;;7.60;4.18;;;;;;;;;;5054877;28;20094;-80
2023/05/31 14:04:23;;;;;;;9.40;3.88;;;;;;;;;;5052750;28;20044;-79
2023/05/31 14:06:50;;;;;;;10.93;4.38;;;;;;;;;;5052847;28;20436;-80
2023/05/31 14:09:17;;;;;;;12.50;4.10;;;;;;;;;;5052607;28;20040;-79
2023/05/31 14:11:43;;;;;;;9.15;4.15;;;;;;;;;;5052889;28;20037;-79
2023/05/31 14:14:10;;;;;;;8.98;4.10;;;;;;;;;;5052526;28;20102;-80
2023/05/31 14:16:36;;;;;;;7.90;3.83;;;;;;;;;;5047109;28;20044;-79
2023/05/31 14:19:02;;;;;;;10.38;3.67;;;;;;;;;;5044489;28;20402;-80
2023/05/31 14:21:29;;;;;;;6.80;3.33;;;;;;;;;;5052737;28;20041;-79
2023/05/31 14:23:55;;;;;;;7.53;3.47;;;;;;;;;;5053503;28;20112;-80
2023/05/31 14:26:21;;;;;;;6.68;3.25;;;;;;;;;;5050752;28;20045;-80
2023/05/31 14:28:47;;;;;;;6.78;3.28;;;;;;;;;;5040100;28;20048;-87
2023/05/31 14:31:13;;;;;;;8.48;3.65;;;;;;;;;;5052166;28;20490;-87
2023/05/31 14:33:39;;;;;;;8.55;3.25;;;;;;;;;;5052279;28;20047;-88